createdAt,value
2022-12-20T00:01:34.726Z,76.90
2022-12-20T00:04:03.805Z,77.00
2022-12-20T00:06:30.715Z,76.80
2022-12-20T00:09:02.591Z,76.90
2022-12-20T00:11:30.160Z,76.80
2022-12-20T00:13:57.799Z,76.90
2022-12-20T00:16:27.033Z,76.80
2022-12-20T00:18:56.456Z,76.80
2022-12-20T00:21:23.648Z,76.80
2022-12-20T00:23:51.868Z,76.70
2022-12-20T00:26:21.182Z,76.60
2022-12-20T00:28:48.138Z,76.70
2022-12-20T00:31:17.814Z,77.20
2022-12-20T00:33:50.098Z,76.40
2022-12-20T00:36:18.006Z,76.50
2022-12-20T00:38:45.757Z,76.30
2022-12-20T00:41:22.266Z,76.30
2022-12-20T00:43:49.744Z,76.30
2022-12-20T00:46:17.749Z,76.10
2022-12-20T00:48:44.477Z,75.90
2022-12-20T00:51:13.521Z,76.00
2022-12-20T00:53:41.032Z,75.90
2022-12-20T00:56:08.468Z,75.70
2022-12-20T00:58:37.467Z,75.70
2022-12-20T01:01:05.753Z,75.70
2022-12-20T01:03:32.501Z,75.60
2022-12-20T01:06:02.931Z,75.60
2022-12-20T01:08:31.226Z,75.60
2022-12-20T01:11:12.686Z,75.70
2022-12-20T01:13:41.815Z,75.60
2022-12-20T01:16:20.197Z,75.70
2022-12-20T01:18:48.060Z,75.70
2022-12-20T01:21:16.009Z,75.80
2022-12-20T01:23:42.985Z,76.00
2022-12-20T01:26:13.875Z,76.10
2022-12-20T01:28:45.407Z,76.30
2022-12-20T01:31:16.049Z,76.50
2022-12-20T01:33:43.737Z,76.90
2022-12-20T01:36:17.182Z,77.20
2022-12-20T01:38:44.604Z,77.50
2022-12-20T01:41:18.832Z,77.80
2022-12-20T01:43:47.016Z,78.30
2022-12-20T01:46:14.443Z,78.60
2022-12-20T01:48:43.799Z,78.90
2022-12-20T01:51:11.339Z,79.10
2022-12-20T01:53:38.648Z,79.40
2022-12-20T01:56:07.368Z,79.70
2022-12-20T01:58:36.895Z,80.50
2022-12-20T02:01:03.589Z,79.90
2022-12-20T02:03:31.691Z,80.40
2022-12-20T02:06:07.549Z,80.30
2022-12-20T02:08:34.215Z,80.50
2022-12-20T02:11:18.676Z,80.60
2022-12-20T02:13:58.704Z,80.80
2022-12-20T02:16:29.458Z,80.80
2022-12-20T02:19:15.268Z,81.20
2022-12-20T02:22:05.916Z,81.60
2022-12-20T02:25:01.118Z,81.50
2022-12-20T02:27:47.968Z,81.60
2022-12-20T02:30:20.109Z,81.60
2022-12-20T02:33:08.469Z,81.70
2022-12-20T02:35:37.771Z,82.00
2022-12-20T02:38:24.854Z,82.10
2022-12-20T02:40:56.835Z,82.20
2022-12-20T02:43:43.608Z,82.50
2022-12-20T02:46:11.427Z,82.60
2022-12-20T02:48:38.928Z,82.70
2022-12-20T02:51:07.073Z,82.90
2022-12-20T02:53:34.986Z,82.90
2022-12-20T02:56:04.335Z,82.90
2022-12-20T02:58:38.195Z,82.90
2022-12-20T03:01:11.491Z,83.20
2022-12-20T03:03:38.494Z,83.30
2022-12-20T03:06:05.721Z,83.40
2022-12-20T03:08:32.325Z,83.30
2022-12-20T03:10:59.041Z,83.20
2022-12-20T03:13:26.070Z,83.50
2022-12-20T03:15:52.850Z,83.40
2022-12-20T03:18:19.473Z,83.30
2022-12-20T03:20:46.068Z,83.20
2022-12-20T03:23:12.953Z,83.20
2022-12-20T03:25:39.584Z,83.30
2022-12-20T03:28:06.262Z,83.20
2022-12-20T03:30:33.450Z,83.20
2022-12-20T03:33:00.129Z,83.10
2022-12-20T03:35:26.721Z,83.20
2022-12-20T03:37:53.338Z,83.10
2022-12-20T03:40:20.015Z,83.00
2022-12-20T03:42:46.659Z,83.00
2022-12-20T03:45:13.329Z,82.90
2022-12-20T03:47:39.953Z,82.90
2022-12-20T03:50:07.611Z,82.80
2022-12-20T03:52:34.557Z,82.70
2022-12-20T03:55:01.281Z,82.60
2022-12-20T03:57:27.912Z,82.50
2022-12-20T03:59:54.494Z,82.50
2022-12-20T04:02:22.644Z,82.40
2022-12-20T04:04:49.609Z,82.40
2022-12-20T04:07:16.469Z,82.30
2022-12-20T04:09:43.134Z,82.20
2022-12-20T04:12:09.903Z,82.10
2022-12-20T04:14:37.385Z,82.10
2022-12-20T04:17:04.408Z,82.00
2022-12-20T04:19:31.051Z,81.90
2022-12-20T04:22:04.742Z,81.90
2022-12-20T04:24:32.493Z,81.80
2022-12-20T04:26:59.171Z,81.80
2022-12-20T04:29:25.846Z,81.70
2022-12-20T04:31:52.528Z,81.60
2022-12-20T04:34:19.254Z,81.60
2022-12-20T04:36:45.960Z,81.50
2022-12-20T04:39:12.628Z,81.50
2022-12-20T04:41:39.239Z,82.20
2022-12-20T04:44:05.877Z,81.40
2022-12-20T04:46:33.174Z,81.40
2022-12-20T04:49:00.161Z,81.30
2022-12-20T04:51:28.346Z,81.20
2022-12-20T04:53:55.668Z,81.20
2022-12-20T04:56:23.549Z,81.10
2022-12-20T04:58:52.694Z,81.10
2022-12-20T05:01:19.987Z,81.10
2022-12-20T05:03:47.509Z,81.20
2022-12-20T05:06:14.701Z,81.40
2022-12-20T05:08:42.130Z,81.50
2022-12-20T05:11:09.133Z,81.70
2022-12-20T05:13:36.457Z,81.80
2022-12-20T05:16:04.072Z,82.20
2022-12-20T05:18:30.920Z,82.30
2022-12-20T05:21:17.917Z,82.60
2022-12-20T05:24:03.240Z,82.50
2022-12-20T05:26:33.772Z,82.90
2022-12-20T05:29:00.395Z,83.60
2022-12-20T05:31:27.815Z,83.00
2022-12-20T05:33:54.516Z,83.20
2022-12-20T05:36:22.264Z,83.30
2022-12-20T05:38:48.891Z,83.40
2022-12-20T05:41:15.894Z,83.70
2022-12-20T05:43:42.596Z,83.80
2022-12-20T05:46:10.987Z,83.90
2022-12-20T05:48:37.905Z,84.00
2022-12-20T05:51:04.893Z,84.00
2022-12-20T05:53:31.803Z,84.70
2022-12-20T05:55:59.797Z,84.00
2022-12-20T05:58:26.476Z,84.10
2022-12-20T06:00:53.161Z,84.10
2022-12-20T06:03:20.016Z,84.20
2022-12-20T06:05:46.847Z,84.10
2022-12-20T06:08:14.024Z,84.10
2022-12-20T06:10:41.862Z,84.10
2022-12-20T06:13:09.602Z,84.10
2022-12-20T06:15:36.645Z,84.00
2022-12-20T06:18:03.739Z,83.90
2022-12-20T06:20:31.271Z,83.80
2022-12-20T06:22:58.147Z,83.70
2022-12-20T06:25:25.632Z,83.60
2022-12-20T06:27:52.456Z,83.60
2022-12-20T06:30:19.656Z,83.50
2022-12-20T06:32:46.341Z,83.30
2022-12-20T06:35:13.244Z,83.20
2022-12-20T06:37:40.622Z,82.90
2022-12-20T06:40:10.160Z,82.70
2022-12-20T06:42:36.957Z,82.50
2022-12-20T06:45:04.478Z,82.30
2022-12-20T06:47:31.178Z,82.10
2022-12-20T06:49:57.873Z,81.70
2022-12-20T06:52:24.820Z,81.60
2022-12-20T06:54:52.835Z,81.60
2022-12-20T06:57:19.827Z,81.30
2022-12-20T06:59:46.643Z,81.30
2022-12-20T07:02:13.680Z,81.10
2022-12-20T07:04:40.775Z,81.00
2022-12-20T07:07:07.554Z,81.00
2022-12-20T07:09:34.777Z,80.90
2022-12-20T07:12:01.723Z,80.70
2022-12-20T07:14:28.550Z,80.60
2022-12-20T07:16:55.407Z,80.40
2022-12-20T07:19:22.211Z,80.30
2022-12-20T07:21:49.063Z,80.10
2022-12-20T07:24:15.836Z,79.90
2022-12-20T07:26:45.653Z,79.90
2022-12-20T07:29:15.861Z,79.80
2022-12-20T07:31:43.206Z,79.50
2022-12-20T07:34:11.167Z,79.50
2022-12-20T07:36:37.994Z,79.40
2022-12-20T07:39:04.739Z,79.20
2022-12-20T07:41:31.483Z,79.10
2022-12-20T07:43:59.345Z,79.10
2022-12-20T07:46:26.353Z,78.80
2022-12-20T07:48:53.267Z,78.80
2022-12-20T07:51:26.809Z,78.90
2022-12-20T07:54:19.447Z,79.00
2022-12-20T07:56:49.649Z,79.00
2022-12-20T07:59:20.435Z,79.20
2022-12-20T08:01:48.583Z,79.40
2022-12-20T08:04:22.241Z,79.40
2022-12-20T08:06:51.748Z,79.60
2022-12-20T08:09:19.376Z,79.90
2022-12-20T08:11:48.683Z,79.80
2022-12-20T08:14:18.489Z,80.00
2022-12-20T08:16:45.340Z,80.10
2022-12-20T08:19:12.779Z,80.10
2022-12-20T08:21:39.581Z,80.30
2022-12-20T08:24:06.742Z,80.30
2022-12-20T08:26:38.326Z,80.40
2022-12-20T08:29:05.242Z,80.40
2022-12-20T08:31:32.052Z,80.40
2022-12-20T08:33:58.917Z,80.40
2022-12-20T08:36:25.625Z,80.50
2022-12-20T08:38:52.336Z,80.40
2022-12-20T08:41:26.794Z,80.50
2022-12-20T08:43:53.524Z,80.50
2022-12-20T08:46:20.530Z,80.50
2022-12-20T08:48:47.317Z,80.50
2022-12-20T08:51:14.161Z,80.50
2022-12-20T08:53:40.949Z,80.50
2022-12-20T08:56:16.640Z,80.50
2022-12-20T08:58:44.766Z,80.50
2022-12-20T09:01:17.229Z,80.70
2022-12-20T09:03:45.203Z,80.70
2022-12-20T09:06:19.133Z,80.80
2022-12-20T09:08:47.036Z,80.90
2022-12-20T09:11:15.464Z,81.10
2022-12-20T09:13:44.723Z,81.30
2022-12-20T09:16:16.826Z,81.60
2022-12-20T09:18:44.167Z,81.70
2022-12-20T09:21:12.247Z,81.80
2022-12-20T09:23:38.988Z,82.00
2022-12-20T09:26:08.514Z,82.20
2022-12-20T09:28:35.608Z,82.30
2022-12-20T09:31:04.914Z,82.40
2022-12-20T09:33:33.194Z,82.60
2022-12-20T09:36:01.125Z,82.80
2022-12-20T09:38:28.975Z,82.80
2022-12-20T09:40:59.193Z,82.90
2022-12-20T09:43:26.767Z,83.10
2022-12-20T09:45:56.549Z,83.30
2022-12-20T09:48:29.096Z,83.50
2022-12-20T09:51:22.184Z,83.60
2022-12-20T09:54:16.802Z,83.60
2022-12-20T09:57:12.409Z,83.70
2022-12-20T09:59:47.487Z,84.00
2022-12-20T10:05:42.256Z,84.10
2022-12-20T10:08:40.467Z,84.20
2022-12-20T10:11:39.621Z,84.30
2022-12-20T10:14:26.971Z,84.50
2022-12-20T10:17:05.474Z,84.80
2022-12-20T10:19:57.036Z,84.90
2022-12-20T10:22:30.979Z,84.90
2022-12-20T10:25:25.232Z,85.10
2022-12-20T10:27:56.928Z,85.10
2022-12-20T10:30:26.566Z,85.20
2022-12-20T10:32:56.117Z,85.30
2022-12-20T10:35:41.026Z,85.30
2022-12-20T10:38:13.359Z,85.60
2022-12-20T10:43:56.408Z,85.50
2022-12-20T10:46:41.592Z,85.60
2022-12-20T10:49:29.401Z,85.60
2022-12-20T10:51:59.061Z,85.60
2022-12-20T10:54:36.045Z,85.60
2022-12-20T10:57:20.884Z,85.70
2022-12-20T10:59:57.326Z,85.70
2022-12-20T11:02:40.020Z,85.90
2022-12-20T11:05:10.923Z,85.90
2022-12-20T11:08:24.609Z,85.90
2022-12-20T11:10:38.015Z,86.10
2022-12-20T11:13:04.859Z,86.00
2022-12-20T11:15:35.118Z,86.10
2022-12-20T11:18:01.898Z,86.10
2022-12-20T11:21:09.630Z,86.10
2022-12-20T11:23:56.993Z,86.10
2022-12-20T11:26:57.517Z,86.00
2022-12-20T11:29:52.017Z,86.00
2022-12-20T11:32:36.728Z,86.10
2022-12-20T11:35:25.360Z,86.20
2022-12-20T11:38:31.770Z,86.20
2022-12-20T11:41:42.596Z,86.20
2022-12-20T11:44:28.935Z,86.10
2022-12-20T11:46:55.729Z,86.20
2022-12-20T11:50:07.625Z,86.20
2022-12-20T11:53:16.758Z,86.30
2022-12-20T11:55:46.840Z,86.20
2022-12-20T11:58:21.021Z,86.20
2022-12-20T12:00:56.184Z,86.30
2022-12-20T12:03:37.890Z,86.40
2022-12-20T12:06:11.280Z,86.40
2022-12-20T12:09:01.751Z,86.50
2022-12-20T12:12:05.086Z,86.40
2022-12-20T12:14:49.379Z,86.40
2022-12-20T12:17:39.179Z,86.40
2022-12-20T12:20:37.545Z,86.50
2022-12-20T12:23:30.592Z,86.50
2022-12-20T12:26:01.317Z,86.70
2022-12-20T12:28:28.217Z,86.70
2022-12-20T12:31:03.283Z,86.70
2022-12-20T12:33:40.664Z,86.80
2022-12-20T12:36:49.252Z,86.80
2022-12-20T12:39:45.789Z,86.80
2022-12-20T12:42:18.669Z,86.90
2022-12-20T12:44:54.038Z,86.80
2022-12-20T12:47:29.727Z,86.80
2022-12-20T12:49:57.450Z,86.80
2022-12-20T12:52:50.675Z,86.80
2022-12-20T12:55:37.721Z,86.80
2022-12-20T12:58:17.841Z,86.80
2022-12-20T13:00:53.869Z,86.80
2022-12-20T13:03:43.209Z,86.80
2022-12-20T13:06:25.299Z,86.90
2022-12-20T13:09:04.199Z,86.90
2022-12-20T13:11:36.499Z,87.00
2022-12-20T13:14:21.361Z,87.10
2022-12-20T13:17:11.350Z,87.10
2022-12-20T13:19:48.365Z,87.00
2022-12-20T13:22:17.829Z,87.00
2022-12-20T13:24:56.731Z,87.00
2022-12-20T13:27:27.109Z,87.00
2022-12-20T13:30:05.307Z,87.10
2022-12-20T13:32:47.292Z,87.20
2022-12-20T13:35:26.138Z,87.10
2022-12-20T13:38:02.024Z,87.20
2022-12-20T13:40:43.690Z,87.20
2022-12-20T13:43:20.077Z,87.20
2022-12-20T13:45:50.768Z,87.30
2022-12-20T13:48:46.927Z,87.20
2022-12-20T13:51:19.024Z,87.20
2022-12-20T13:54:15.394Z,87.20
2022-12-20T13:56:48.001Z,87.20
2022-12-20T13:59:27.376Z,87.30
2022-12-20T14:01:57.462Z,87.30
2022-12-20T14:04:27.040Z,87.30
2022-12-20T14:06:58.899Z,87.30
2022-12-20T14:09:35.455Z,87.20
2022-12-20T14:12:36.240Z,87.20
2022-12-20T14:15:20.532Z,87.30
2022-12-20T14:17:47.225Z,87.20
2022-12-20T14:20:15.084Z,87.30
2022-12-20T14:23:06.832Z,87.40
2022-12-20T14:25:41.870Z,87.30
2022-12-20T14:28:27.065Z,87.30
2022-12-20T14:30:55.259Z,87.30
2022-12-20T14:33:31.265Z,87.20
2022-12-20T14:36:07.080Z,87.30
2022-12-20T14:38:33.784Z,87.30
2022-12-20T14:41:00.487Z,87.20
2022-12-20T14:43:34.465Z,87.20
2022-12-20T14:46:37.411Z,87.30
2022-12-20T14:49:31.583Z,87.30
2022-12-20T14:52:35.666Z,87.30
2022-12-20T14:55:09.815Z,87.30
2022-12-20T14:57:37.151Z,87.20
2022-12-20T15:00:19.148Z,87.30
2022-12-20T15:02:46.107Z,87.20
2022-12-20T15:05:31.966Z,87.30
2022-12-20T15:08:23.715Z,87.20
2022-12-20T15:10:55.166Z,87.20
2022-12-20T15:13:26.792Z,87.10
2022-12-20T15:15:53.588Z,87.20
2022-12-20T15:18:21.649Z,87.20
2022-12-20T15:21:27.086Z,87.30
2022-12-20T15:23:55.410Z,87.30
2022-12-20T15:26:25.756Z,87.30
2022-12-20T15:28:53.053Z,87.40
2022-12-20T15:31:30.840Z,87.40
2022-12-20T15:34:02.186Z,87.20
2022-12-20T15:36:29.951Z,87.30
2022-12-20T15:39:14.148Z,87.20
2022-12-20T15:41:48.317Z,87.30
2022-12-20T15:44:21.122Z,87.30
2022-12-20T15:46:48.521Z,87.30
2022-12-20T15:49:17.295Z,87.30
2022-12-20T15:51:44.962Z,87.30
2022-12-20T15:54:41.068Z,87.20
2022-12-20T15:57:12.853Z,87.20
2022-12-20T16:02:29.018Z,87.20
2022-12-20T16:04:55.979Z,87.20
2022-12-20T16:07:23.541Z,87.20
2022-12-20T16:09:50.397Z,87.10
2022-12-20T16:12:23.170Z,87.10
2022-12-20T16:14:49.925Z,87.10
2022-12-20T16:17:16.948Z,87.10
2022-12-20T16:19:44.578Z,87.10
2022-12-20T16:22:19.609Z,87.10
2022-12-20T16:24:46.797Z,87.10
2022-12-20T16:27:13.954Z,87.10
2022-12-20T16:29:41.598Z,87.20
2022-12-20T16:32:16.365Z,87.20
2022-12-20T16:34:44.316Z,87.30
2022-12-20T16:37:14.325Z,87.20
2022-12-20T16:39:42.030Z,87.20
2022-12-20T16:42:17.348Z,87.20
2022-12-20T16:44:45.862Z,87.20
2022-12-20T16:47:13.973Z,87.20
2022-12-20T16:49:47.248Z,87.20
2022-12-20T16:52:18.822Z,87.20
2022-12-20T16:54:45.600Z,87.20
2022-12-20T16:57:12.325Z,87.20
2022-12-20T16:59:39.031Z,87.20
2022-12-20T17:02:22.304Z,87.20
2022-12-20T17:04:49.135Z,87.30
2022-12-20T17:07:16.312Z,87.30
2022-12-20T17:09:43.138Z,87.40
2022-12-20T17:12:15.586Z,87.20
2022-12-20T17:14:42.304Z,87.40
2022-12-20T17:17:09.051Z,87.40
2022-12-20T17:19:35.726Z,87.30
2022-12-20T17:24:47.279Z,87.40
2022-12-20T17:27:14.065Z,87.30
2022-12-20T17:29:40.776Z,88.00
2022-12-20T17:32:22.410Z,87.30
2022-12-20T17:34:49.881Z,87.10
2022-12-20T17:37:17.535Z,87.20
2022-12-20T17:39:44.426Z,87.30
2022-12-20T17:42:14.405Z,87.30
2022-12-20T17:44:41.149Z,87.40
2022-12-20T17:47:07.864Z,87.30
2022-12-20T17:49:34.540Z,87.40
2022-12-20T17:52:01.764Z,87.30
2022-12-20T17:54:34.864Z,87.30
2022-12-20T17:57:05.588Z,87.30
2022-12-20T17:59:32.335Z,87.30
2022-12-20T18:01:59.431Z,87.30
2022-12-20T18:04:26.708Z,87.30
2022-12-20T18:06:53.637Z,87.20
2022-12-20T18:09:21.441Z,87.20
2022-12-20T18:11:48.722Z,87.20
2022-12-20T18:14:16.070Z,87.30
2022-12-20T18:16:42.868Z,87.20
2022-12-20T18:19:16.480Z,87.30
2022-12-20T18:21:43.097Z,87.30
2022-12-20T18:24:15.138Z,87.30
2022-12-20T18:26:42.618Z,87.30
2022-12-20T18:29:10.665Z,87.30
2022-12-20T18:31:37.838Z,87.30
2022-12-20T18:34:04.672Z,87.30
2022-12-20T18:36:36.762Z,87.30
2022-12-20T18:39:07.904Z,87.30
2022-12-20T18:41:35.117Z,87.20
2022-12-20T18:44:04.776Z,87.20
2022-12-20T18:46:31.543Z,87.30
2022-12-20T18:49:00.153Z,87.20
2022-12-20T18:51:32.843Z,87.10
2022-12-20T18:54:00.658Z,87.10
2022-12-20T18:56:31.003Z,87.20
2022-12-20T18:59:04.499Z,87.20
2022-12-20T19:01:35.918Z,87.30
2022-12-20T19:04:04.262Z,87.30
2022-12-20T19:06:31.861Z,87.20
2022-12-20T19:09:04.058Z,87.20
2022-12-20T19:11:30.775Z,87.20
2022-12-20T19:13:57.451Z,87.20
2022-12-20T19:16:27.968Z,87.20
2022-12-20T19:18:54.683Z,87.20
2022-12-20T19:21:24.586Z,87.20
2022-12-20T19:23:55.625Z,87.20
2022-12-20T19:26:24.229Z,87.20
2022-12-20T19:28:50.998Z,87.10
2022-12-20T19:31:23.499Z,87.10
2022-12-20T19:33:53.554Z,87.10
2022-12-20T19:36:24.864Z,87.10
2022-12-20T19:38:55.667Z,87.00
2022-12-20T19:41:24.206Z,87.00
2022-12-20T19:43:51.654Z,87.00
2022-12-20T19:46:27.980Z,87.00
2022-12-20T19:48:56.029Z,87.00
2022-12-20T19:51:23.329Z,86.90
2022-12-20T19:53:51.550Z,87.00
2022-12-20T19:56:21.150Z,86.90
2022-12-20T19:58:47.881Z,87.00
2022-12-20T20:01:15.669Z,87.00
2022-12-20T20:03:42.417Z,87.00
2022-12-20T20:06:09.508Z,87.00
2022-12-20T20:08:36.373Z,87.00
2022-12-20T20:11:09.407Z,87.00
2022-12-20T20:13:38.131Z,87.10
2022-12-20T20:16:06.061Z,87.10
2022-12-20T20:18:35.194Z,87.10
2022-12-20T20:21:10.460Z,87.00
2022-12-20T20:23:37.974Z,87.00
2022-12-20T20:26:10.398Z,87.00
2022-12-20T20:28:44.543Z,87.00
2022-12-20T20:31:14.546Z,87.00
2022-12-20T20:33:42.119Z,87.00
2022-12-20T20:36:12.568Z,87.00
2022-12-20T20:38:39.168Z,87.00
2022-12-20T20:41:05.894Z,87.00
2022-12-20T20:43:36.601Z,87.00
2022-12-20T20:46:09.699Z,86.90
2022-12-20T20:48:36.433Z,86.90
2022-12-20T20:51:03.393Z,86.80
2022-12-20T20:53:34.002Z,86.80
2022-12-20T20:56:02.141Z,86.90
2022-12-20T20:58:29.032Z,86.80
2022-12-20T21:01:01.002Z,86.80
2022-12-20T21:03:29.010Z,86.90
2022-12-20T21:08:42.813Z,86.90
2022-12-20T21:11:10.123Z,86.80
2022-12-20T21:13:36.920Z,86.80
2022-12-20T21:16:20.009Z,86.80
2022-12-20T21:18:51.275Z,86.80
2022-12-20T21:21:18.281Z,86.80
2022-12-20T21:23:46.361Z,86.80
2022-12-20T21:28:27.668Z,86.10
2022-12-20T21:31:03.102Z,86.70
2022-12-20T21:33:29.808Z,86.70
2022-12-20T21:36:05.042Z,86.70
2022-12-20T21:38:32.335Z,86.70
2022-12-20T21:41:00.844Z,86.80
2022-12-20T21:43:28.314Z,86.70
2022-12-20T21:45:55.961Z,86.60
2022-12-20T21:48:23.675Z,86.60
2022-12-20T21:51:04.269Z,86.60
2022-12-20T21:53:31.877Z,86.50
2022-12-20T21:56:00.339Z,86.50
2022-12-20T21:58:29.265Z,86.60
2022-12-20T22:00:57.023Z,86.50
2022-12-20T22:03:24.994Z,86.60
2022-12-20T22:05:55.542Z,86.50
2022-12-20T22:08:24.216Z,86.50
2022-12-20T22:11:07.395Z,86.40
2022-12-20T22:13:41.114Z,86.30
2022-12-20T22:16:12.611Z,86.30
2022-12-20T22:18:41.059Z,86.20
2022-12-20T22:21:10.615Z,86.20
2022-12-20T22:23:37.840Z,86.20
2022-12-20T22:26:06.980Z,86.20
2022-12-20T22:28:33.905Z,86.20
2022-12-20T22:31:00.516Z,86.30
2022-12-20T22:33:27.149Z,87.00
2022-12-20T22:35:53.829Z,86.20
2022-12-20T22:38:20.431Z,86.20
2022-12-20T22:40:47.024Z,86.10
2022-12-20T22:43:13.659Z,86.10
2022-12-20T22:45:40.308Z,86.10
2022-12-20T22:48:06.921Z,86.10
2022-12-20T22:50:33.502Z,86.00
2022-12-20T22:53:00.117Z,85.90
2022-12-20T22:55:26.697Z,86.20
2022-12-20T22:57:53.273Z,85.80
2022-12-20T23:00:20.071Z,85.90
2022-12-20T23:02:46.846Z,85.90
2022-12-20T23:05:13.621Z,85.90
2022-12-20T23:07:40.182Z,86.00
2022-12-20T23:10:27.137Z,86.00
2022-12-20T23:13:12.209Z,85.90
2022-12-20T23:15:41.900Z,85.90
2022-12-20T23:18:08.571Z,85.90
2022-12-20T23:20:53.984Z,85.80
2022-12-20T23:23:20.587Z,85.90
2022-12-20T23:25:47.177Z,85.90
2022-12-20T23:28:13.758Z,85.90
2022-12-20T23:30:40.518Z,86.00
2022-12-20T23:33:07.072Z,86.00
2022-12-20T23:35:33.655Z,86.00
2022-12-20T23:38:00.242Z,86.70
2022-12-20T23:40:26.854Z,85.90
2022-12-20T23:42:54.513Z,85.90
2022-12-20T23:45:21.190Z,85.90
2022-12-20T23:47:47.766Z,85.80
2022-12-20T23:50:14.359Z,85.90
2022-12-20T23:52:40.970Z,85.80
2022-12-20T23:55:07.793Z,85.80
2022-12-20T23:57:34.401Z,85.70
